sensor_id;sensor_type;location;lat;lon;timestamp;pressure;altitude;pressure_sealevel;temperature;humidity
24620;BME280;12763;55.802;37.404;2023-05-21T00:00:24;100166.91;;;13.69;100.00
24620;BME280;12763;55.802;37.404;2023-05-21T00:02:50;100163.41;;;13.80;100.00
24620;BME280;12763;55.802;37.404;2023-05-21T00:05:16;100170.09;;;13.97;100.00
24620;BME280;12763;55.802;37.404;2023-05-21T00:07:43;100163.19;;;14.06;100.00
24620;BME280;12763;55.802;37.404;2023-05-21T00:10:10;100160.94;;;13.97;100.00
24620;BME280;12763;55.802;37.404;2023-05-21T00:12:37;100160.25;;;14.01;100.00
24620;BME280;12763;55.802;37.404;2023-05-21T00:15:03;100154.28;;;13.98;100.00
24620;BME280;12763;55.802;37.404;2023-05-21T00:17:32;100154.91;;;13.75;100.00
24620;BME280;12763;55.802;37.404;2023-05-21T00:19:58;100149.88;;;13.90;100.00
24620;BME280;12763;55.802;37.404;2023-05-21T00:22:28;100153.81;;;13.76;100.00
24620;BME280;12763;55.802;37.404;2023-05-21T00:24:54;100140.78;;;13.83;100.00
24620;BME280;12763;55.802;37.404;2023-05-21T00:27:20;100150.91;;;13.96;100.00
24620;BME280;12763;55.802;37.404;2023-05-21T00:29:46;100152.09;;;14.06;100.00
24620;BME280;12763;55.802;37.404;2023-05-21T00:32:11;100144.94;;;14.17;100.00
24620;BME280;12763;55.802;37.404;2023-05-21T00:34:37;100145.94;;;14.04;100.00
24620;BME280;12763;55.802;37.404;2023-05-21T00:37:03;100143.59;;;14.01;100.00
24620;BME280;12763;55.802;37.404;2023-05-21T00:39:29;100141.88;;;14.00;100.00
24620;BME280;12763;55.802;37.404;2023-05-21T00:41:55;100134.53;;;14.12;100.00
24620;BME280;12763;55.802;37.404;2023-05-21T00:44:21;100138.38;;;14.11;100.00
24620;BME280;12763;55.802;37.404;2023-05-21T00:46:49;100143.84;;;14.00;100.00
24620;BME280;12763;55.802;37.404;2023-05-21T00:49:20;100139.31;;;14.05;100.00
24620;BME280;12763;55.802;37.404;2023-05-21T00:51:47;100140.59;;;14.03;100.00
24620;BME280;12763;55.802;37.404;2023-05-21T00:54:14;100146.66;;;13.93;100.00
24620;BME280;12763;55.802;37.404;2023-05-21T00:56:40;100141.09;;;13.93;100.00
24620;BME280;12763;55.802;37.404;2023-05-21T00:59:07;100144.28;;;13.97;100.00
24620;BME280;12763;55.802;37.404;2023-05-21T01:01:34;100143.59;;;14.01;100.00
24620;BME280;12763;55.802;37.404;2023-05-21T01:04:01;100143.59;;;14.01;100.00
24620;BME280;12763;55.802;37.404;2023-05-21T01:06:28;100134.81;;;14.04;100.00
24620;BME280;12763;55.802;37.404;2023-05-21T01:08:57;100140.53;;;14.09;100.00
24620;BME280;12763;55.802;37.404;2023-05-21T01:11:45;100139.75;;;14.02;100.00
24620;BME280;12763;55.802;37.404;2023-05-21T01:14:14;100143.56;;;14.08;100.00
24620;BME280;12763;55.802;37.404;2023-05-21T01:16:42;100143.44;;;13.96;100.00
24620;BME280;12763;55.802;37.404;2023-05-21T01:19:14;100145.31;;;14.02;100.00
24620;BME280;12763;55.802;37.404;2023-05-21T01:21:43;100141.16;;;13.87;100.00
24620;BME280;12763;55.802;37.404;2023-05-21T01:24:10;100146.03;;;13.91;100.00
24620;BME280;12763;55.802;37.404;2023-05-21T01:26:36;100148.00;;;13.84;100.00
24620;BME280;12763;55.802;37.404;2023-05-21T01:29:09;100151.75;;;13.96;100.00
24620;BME280;12763;55.802;37.404;2023-05-21T01:31:51;100148.25;;;14.07;100.00
24620;BME280;12763;55.802;37.404;2023-05-21T01:34:23;100149.16;;;14.01;100.00
24620;BME280;12763;55.802;37.404;2023-05-21T01:37:05;100143.31;;;14.09;100.00
24620;BME280;12763;55.802;37.404;2023-05-21T01:39:36;100143.56;;;14.08;100.00
24620;BME280;12763;55.802;37.404;2023-05-21T01:42:05;100148.69;;;14.04;100.00
24620;BME280;12763;55.802;37.404;2023-05-21T01:44:35;100153.63;;;14.02;100.00
24620;BME280;12763;55.802;37.404;2023-05-21T01:47:02;100144.22;;;14.03;100.00
24620;BME280;12763;55.802;37.404;2023-05-21T01:49:29;100147.63;;;14.05;100.00
24620;BME280;12763;55.802;37.404;2023-05-21T01:51:56;100143.94;;;14.11;100.00
24620;BME280;12763;55.802;37.404;2023-05-21T01:54:22;100140.09;;;14.12;100.00
24620;BME280;12763;55.802;37.404;2023-05-21T01:56:49;100143.88;;;14.18;100.00
24620;BME280;12763;55.802;37.404;2023-05-21T01:59:16;100146.94;;;14.10;100.00
24620;BME280;12763;55.802;37.404;2023-05-21T02:01:42;100141.88;;;14.00;100.00
24620;BME280;12763;55.802;37.404;2023-05-21T02:04:08;100149.19;;;14.20;100.00
24620;BME280;12763;55.802;37.404;2023-05-21T02:06:34;100139.19;;;14.19;100.00
24620;BME280;12763;55.802;37.404;2023-05-21T02:09:01;100140.03;;;14.19;100.00
24620;BME280;12763;55.802;37.404;2023-05-21T02:11:28;100135.44;;;14.06;100.00
24620;BME280;12763;55.802;37.404;2023-05-21T02:13:55;100129.84;;;14.13;100.00
24620;BME280;12763;55.802;37.404;2023-05-21T02:16:22;100132.22;;;14.09;100.00
24620;BME280;12763;55.802;37.404;2023-05-21T02:18:48;100133.53;;;14.25;100.00
24620;BME280;12763;55.802;37.404;2023-05-21T02:21:18;100130.78;;;14.25;100.00
24620;BME280;12763;55.802;37.404;2023-05-21T02:23:45;100132.72;;;14.25;100.00
24620;BME280;12763;55.802;37.404;2023-05-21T02:26:10;100128.84;;;14.26;100.00
24620;BME280;12763;55.802;37.404;2023-05-21T02:28:37;100130.28;;;14.35;100.00
24620;BME280;12763;55.802;37.404;2023-05-21T02:31:02;100124.00;;;14.46;100.00
24620;BME280;12763;55.802;37.404;2023-05-21T02:33:28;100128.63;;;14.52;100.00
24620;BME280;12763;55.802;37.404;2023-05-21T02:35:54;100127.94;;;14.56;100.00
24620;BME280;12763;55.802;37.404;2023-05-21T02:38:20;100132.16;;;14.59;100.00
24620;BME280;12763;55.802;37.404;2023-05-21T02:40:51;100132.31;;;14.64;100.00
24620;BME280;12763;55.802;37.404;2023-05-21T02:43:16;100123.38;;;14.62;100.00
24620;BME280;12763;55.802;37.404;2023-05-21T02:45:42;100134.94;;;14.59;100.00
24620;BME280;12763;55.802;37.404;2023-05-21T02:48:08;100137.88;;;14.64;100.00
24620;BME280;12763;55.802;37.404;2023-05-21T02:50:39;100128.72;;;14.63;100.00
24620;BME280;12763;55.802;37.404;2023-05-21T02:53:05;100135.75;;;14.66;100.00
24620;BME280;12763;55.802;37.404;2023-05-21T02:55:32;100133.97;;;14.72;100.00
24620;BME280;12763;55.802;37.404;2023-05-21T02:57:58;100134.97;;;14.77;100.00
24620;BME280;12763;55.802;37.404;2023-05-21T03:00:24;100139.44;;;14.78;100.00
24620;BME280;12763;55.802;37.404;2023-05-21T03:02:50;100137.50;;;14.79;100.00
24620;BME280;12763;55.802;37.404;2023-05-21T03:05:16;100136.34;;;14.86;100.00
24620;BME280;12763;55.802;37.404;2023-05-21T03:07:43;100139.50;;;14.90;100.00
24620;BME280;12763;55.802;37.404;2023-05-21T03:10:09;100142.06;;;14.91;100.00
24620;BME280;12763;55.802;37.404;2023-05-21T03:12:35;100136.66;;;14.96;100.00
24620;BME280;12763;55.802;37.404;2023-05-21T03:15:02;100139.91;;;14.93;100.00
24620;BME280;12763;55.802;37.404;2023-05-21T03:17:33;100132.78;;;14.97;100.00
24620;BME280;12763;55.802;37.404;2023-05-21T03:20:00;100139.81;;;15.00;100.00
24620;BME280;12763;55.802;37.404;2023-05-21T03:22:26;100134.56;;;14.92;100.00
24620;BME280;12763;55.802;37.404;2023-05-21T03:24:53;100137.72;;;14.95;100.00
24620;BME280;12763;55.802;37.404;2023-05-21T03:27:19;100136.19;;;14.99;100.00
24620;BME280;12763;55.802;37.404;2023-05-21T03:29:47;100131.91;;;14.97;100.00
24620;BME280;12763;55.802;37.404;2023-05-21T03:32:14;100141.38;;;14.96;100.00
24620;BME280;12763;55.802;37.404;2023-05-21T03:34:41;100137.41;;;15.03;100.00
24620;BME280;12763;55.802;37.404;2023-05-21T03:37:07;100146.00;;;15.02;100.00
24620;BME280;12763;55.802;37.404;2023-05-21T03:39:33;100139.25;;;15.09;100.00
24620;BME280;12763;55.802;37.404;2023-05-21T03:41:59;100151.00;;;15.11;100.00
24620;BME280;12763;55.802;37.404;2023-05-21T03:44:38;100142.19;;;15.14;100.00
24620;BME280;12763;55.802;37.404;2023-05-21T03:47:17;100147.41;;;15.22;100.00
24620;BME280;12763;55.802;37.404;2023-05-21T03:49:43;100150.50;;;15.33;100.00
24620;BME280;12763;55.802;37.404;2023-05-21T03:52:09;100150.34;;;15.27;100.00
24620;BME280;12763;55.802;37.404;2023-05-21T03:54:35;100143.72;;;15.28;100.00
24620;BME280;12763;55.802;37.404;2023-05-21T03:57:04;100139.16;;;15.34;100.00
24620;BME280;12763;55.802;37.404;2023-05-21T03:59:31;100145.09;;;15.38;100.00
24620;BME280;12763;55.802;37.404;2023-05-21T04:01:58;100139.47;;;15.26;100.00
24620;BME280;12763;55.802;37.404;2023-05-21T04:04:26;100152.97;;;15.22;100.00
24620;BME280;12763;55.802;37.404;2023-05-21T04:06:54;100145.56;;;15.16;100.00
24620;BME280;12763;55.802;37.404;2023-05-21T04:09:21;100148.00;;;15.13;100.00
24620;BME280;12763;55.802;37.404;2023-05-21T04:11:47;100146.63;;;15.34;100.00
24620;BME280;12763;55.802;37.404;2023-05-21T04:14:13;100146.16;;;15.37;100.00
24620;BME280;12763;55.802;37.404;2023-05-21T04:16:39;100143.31;;;15.43;100.00
24620;BME280;12763;55.802;37.404;2023-05-21T04:19:08;100146.25;;;15.48;100.00
24620;BME280;12763;55.802;37.404;2023-05-21T04:21:34;100143.59;;;15.53;100.00
24620;BME280;12763;55.802;37.404;2023-05-21T04:24:02;100141.34;;;15.62;100.00
24620;BME280;12763;55.802;37.404;2023-05-21T04:26:54;100138.00;;;15.83;100.00
24620;BME280;12763;55.802;37.404;2023-05-21T04:29:20;100138.03;;;15.95;100.00
24620;BME280;12763;55.802;37.404;2023-05-21T04:31:48;100137.75;;;15.73;100.00
24620;BME280;12763;55.802;37.404;2023-05-21T04:34:15;100137.53;;;15.86;100.00
24620;BME280;12763;55.802;37.404;2023-05-21T04:36:44;100134.03;;;15.91;100.00
24620;BME280;12763;55.802;37.404;2023-05-21T04:39:11;100139.59;;;16.02;100.00
24620;BME280;12763;55.802;37.404;2023-05-21T04:41:37;100130.78;;;16.05;100.00
24620;BME280;12763;55.802;37.404;2023-05-21T04:44:05;100140.97;;;16.11;100.00
24620;BME280;12763;55.802;37.404;2023-05-21T04:46:31;100128.72;;;16.01;100.00
24620;BME280;12763;55.802;37.404;2023-05-21T04:49:01;100139.88;;;16.01;100.00
24620;BME280;12763;55.802;37.404;2023-05-21T04:51:30;100131.53;;;16.12;100.00
24620;BME280;12763;55.802;37.404;2023-05-21T04:53:56;100129.47;;;16.19;100.00
24620;BME280;12763;55.802;37.404;2023-05-21T04:56:23;100128.50;;;16.25;100.00
24620;BME280;12763;55.802;37.404;2023-05-21T04:58:52;100134.94;;;16.37;100.00
24620;BME280;12763;55.802;37.404;2023-05-21T05:01:20;100138.81;;;16.48;100.00
24620;BME280;12763;55.802;37.404;2023-05-21T05:03:51;100132.16;;;16.61;100.00
24620;BME280;12763;55.802;37.404;2023-05-21T05:06:18;100140.34;;;16.90;100.00
24620;BME280;12763;55.802;37.404;2023-05-21T05:08:44;100131.91;;;16.74;100.00
24620;BME280;12763;55.802;37.404;2023-05-21T05:11:14;100124.56;;;17.08;100.00
24620;BME280;12763;55.802;37.404;2023-05-21T05:13:40;100134.06;;;17.23;100.00
24620;BME280;12763;55.802;37.404;2023-05-21T05:16:08;100134.22;;;17.28;100.00
24620;BME280;12763;55.802;37.404;2023-05-21T05:18:34;100135.41;;;17.21;100.00
24620;BME280;12763;55.802;37.404;2023-05-21T05:21:02;100137.69;;;17.35;100.00
24620;BME280;12763;55.802;37.404;2023-05-21T05:23:28;100131.13;;;17.41;100.00
24620;BME280;12763;55.802;37.404;2023-05-21T05:25:54;100134.44;;;17.27;100.00
24620;BME280;12763;55.802;37.404;2023-05-21T05:28:20;100129.84;;;17.21;100.00
24620;BME280;12763;55.802;37.404;2023-05-21T05:30:46;100139.75;;;17.00;100.00
24620;BME280;12763;55.802;37.404;2023-05-21T05:33:19;100138.75;;;17.06;100.00
24620;BME280;12763;55.802;37.404;2023-05-21T05:35:45;100143.91;;;17.26;100.00
24620;BME280;12763;55.802;37.404;2023-05-21T05:38:11;100151.13;;;17.38;100.00
24620;BME280;12763;55.802;37.404;2023-05-21T05:40:38;100149.69;;;17.36;100.00
24620;BME280;12763;55.802;37.404;2023-05-21T05:43:04;100147.03;;;17.29;100.00
24620;BME280;12763;55.802;37.404;2023-05-21T05:45:31;100150.69;;;17.30;100.00
24620;BME280;12763;55.802;37.404;2023-05-21T05:47:58;100154.84;;;17.16;100.00
24620;BME280;12763;55.802;37.404;2023-05-21T05:50:24;100152.59;;;17.01;100.00
24620;BME280;12763;55.802;37.404;2023-05-21T05:52:51;100159.84;;;17.02;100.00
24620;BME280;12763;55.802;37.404;2023-05-21T05:55:16;100151.88;;;16.94;100.00
24620;BME280;12763;55.802;37.404;2023-05-21T05:57:42;100161.06;;;17.06;100.00
24620;BME280;12763;55.802;37.404;2023-05-21T06:00:12;100159.28;;;16.88;100.00
24620;BME280;12763;55.802;37.404;2023-05-21T06:02:39;100171.28;;;16.89;100.00
24620;BME280;12763;55.802;37.404;2023-05-21T06:05:06;100165.81;;;16.82;100.00
24620;BME280;12763;55.802;37.404;2023-05-21T06:07:32;100168.13;;;16.74;100.00
24620;BME280;12763;55.802;37.404;2023-05-21T06:09:58;100172.13;;;16.66;100.00
24620;BME280;12763;55.802;37.404;2023-05-21T06:12:25;100177.69;;;16.43;100.00
24620;BME280;12763;55.802;37.404;2023-05-21T06:14:51;100169.56;;;16.41;100.00
24620;BME280;12763;55.802;37.404;2023-05-21T06:17:18;100175.00;;;16.36;100.00
24620;BME280;12763;55.802;37.404;2023-05-21T06:19:44;100167.53;;;16.49;99.71
24620;BME280;12763;55.802;37.404;2023-05-21T06:22:10;100163.78;;;16.55;100.00
24620;BME280;12763;55.802;37.404;2023-05-21T06:24:37;100169.78;;;16.52;99.75
24620;BME280;12763;55.802;37.404;2023-05-21T06:27:03;100162.44;;;16.69;98.06
24620;BME280;12763;55.802;37.404;2023-05-21T06:29:30;100163.56;;;16.68;96.99
24620;BME280;12763;55.802;37.404;2023-05-21T06:31:56;100159.53;;;16.75;96.33
24620;BME280;12763;55.802;37.404;2023-05-21T06:34:22;100159.75;;;16.85;95.02
24620;BME280;12763;55.802;37.404;2023-05-21T06:36:47;100156.13;;;16.85;94.01
24620;BME280;12763;55.802;37.404;2023-05-21T06:39:13;100164.84;;;16.77;93.05
24620;BME280;12763;55.802;37.404;2023-05-21T06:41:40;100151.88;;;16.94;91.78
24620;BME280;12763;55.802;37.404;2023-05-21T06:44:26;100164.03;;;17.28;90.33
24620;BME280;12763;55.802;37.404;2023-05-21T06:47:07;100157.88;;;17.54;88.58
24620;BME280;12763;55.802;37.404;2023-05-21T06:49:34;100153.06;;;17.78;87.67
24620;BME280;12763;55.802;37.404;2023-05-21T06:52:00;100145.66;;;18.00;86.60
24620;BME280;12763;55.802;37.404;2023-05-21T06:54:27;100144.88;;;18.21;84.03
24620;BME280;12763;55.802;37.404;2023-05-21T06:56:53;100148.72;;;18.87;79.85
24620;BME280;12763;55.802;37.404;2023-05-21T06:59:19;100146.94;;;19.19;76.96
24620;BME280;12763;55.802;37.404;2023-05-21T07:01:45;100153.75;;;18.85;77.61
24620;BME280;12763;55.802;37.404;2023-05-21T07:04:12;100151.06;;;18.40;79.40
24620;BME280;12763;55.802;37.404;2023-05-21T07:06:39;100165.13;;;18.28;81.33
24620;BME280;12763;55.802;37.404;2023-05-21T07:09:05;100158.53;;;18.51;80.05
24620;BME280;12763;55.802;37.404;2023-05-21T07:11:31;100155.81;;;18.56;78.51
24620;BME280;12763;55.802;37.404;2023-05-21T07:13:59;100159.00;;;18.14;79.53
24620;BME280;12763;55.802;37.404;2023-05-21T07:16:25;100156.34;;;18.36;78.53
24620;BME280;12763;55.802;37.404;2023-05-21T07:18:51;100151.84;;;18.35;78.43
24620;BME280;12763;55.802;37.404;2023-05-21T07:21:17;100149.41;;;18.55;78.46
24620;BME280;12763;55.802;37.404;2023-05-21T07:23:43;100158.34;;;18.41;78.62
24620;BME280;12763;55.802;37.404;2023-05-21T07:26:10;100158.09;;;18.59;77.90
24620;BME280;12763;55.802;37.404;2023-05-21T07:28:36;100157.28;;;18.97;75.30
24620;BME280;12763;55.802;37.404;2023-05-21T07:31:02;100158.38;;;19.61;71.89
24620;BME280;12763;55.802;37.404;2023-05-21T07:33:34;100156.50;;;19.45;71.19
24620;BME280;12763;55.802;37.404;2023-05-21T07:36:00;100158.59;;;19.11;71.52
24620;BME280;12763;55.802;37.404;2023-05-21T07:38:27;100159.56;;;19.00;73.40
24620;BME280;12763;55.802;37.404;2023-05-21T07:40:53;100150.56;;;18.98;73.07
24620;BME280;12763;55.802;37.404;2023-05-21T07:43:20;100155.75;;;18.89;73.93
24620;BME280;12763;55.802;37.404;2023-05-21T07:45:45;100155.78;;;18.39;76.69
24620;BME280;12763;55.802;37.404;2023-05-21T07:48:11;100152.94;;;18.51;77.04
24620;BME280;12763;55.802;37.404;2023-05-21T07:50:48;100156.84;;;18.66;75.96
24620;BME280;12763;55.802;37.404;2023-05-21T07:53:17;100148.78;;;18.53;75.58
24620;BME280;12763;55.802;37.404;2023-05-21T07:55:46;100152.03;;;18.84;74.19
24620;BME280;12763;55.802;37.404;2023-05-21T07:58:15;100147.84;;;18.64;75.16
24620;BME280;12763;55.802;37.404;2023-05-21T08:00:43;100149.53;;;18.65;74.38
24620;BME280;12763;55.802;37.404;2023-05-21T08:03:10;100159.72;;;18.71;74.15
24620;BME280;12763;55.802;37.404;2023-05-21T08:05:37;100154.13;;;18.71;74.71
24620;BME280;12763;55.802;37.404;2023-05-21T08:08:02;100144.47;;;18.62;74.58
24620;BME280;12763;55.802;37.404;2023-05-21T08:10:31;100146.44;;;18.84;72.64
24620;BME280;12763;55.802;37.404;2023-05-21T08:12:57;100153.97;;;19.21;71.03
24620;BME280;12763;55.802;37.404;2023-05-21T08:15:23;100150.66;;;19.46;69.97
24620;BME280;12763;55.802;37.404;2023-05-21T08:17:49;100147.53;;;19.43;69.94
24620;BME280;12763;55.802;37.404;2023-05-21T08:20:14;100152.09;;;19.27;69.40
24620;BME280;12763;55.802;37.404;2023-05-21T08:22:42;100153.19;;;19.26;69.74
24620;BME280;12763;55.802;37.404;2023-05-21T08:25:09;100151.25;;;19.48;68.60
24620;BME280;12763;55.802;37.404;2023-05-21T08:27:34;100151.63;;;19.83;67.60
24620;BME280;12763;55.802;37.404;2023-05-21T08:30:01;100143.28;;;20.15;66.98
24620;BME280;12763;55.802;37.404;2023-05-21T08:32:30;100147.72;;;20.38;65.51
24620;BME280;12763;55.802;37.404;2023-05-21T08:34:56;100148.25;;;20.35;65.02
24620;BME280;12763;55.802;37.404;2023-05-21T08:37:41;100154.03;;;19.97;65.60
24620;BME280;12763;55.802;37.404;2023-05-21T08:40:25;100152.56;;;19.94;65.63
24620;BME280;12763;55.802;37.404;2023-05-21T08:42:51;100151.34;;;19.80;65.55
24620;BME280;12763;55.802;37.404;2023-05-21T08:45:33;100148.31;;;19.86;65.13
24620;BME280;12763;55.802;37.404;2023-05-21T08:48:03;100143.81;;;19.59;66.24
24620;BME280;12763;55.802;37.404;2023-05-21T08:50:32;100146.84;;;19.52;66.30
24620;BME280;12763;55.802;37.404;2023-05-21T08:53:03;100153.25;;;19.31;67.00
24620;BME280;12763;55.802;37.404;2023-05-21T08:55:30;100145.41;;;19.50;66.04
24620;BME280;12763;55.802;37.404;2023-05-21T08:57:57;100157.56;;;19.60;64.93
24620;BME280;12763;55.802;37.404;2023-05-21T09:00:24;100154.69;;;19.55;64.45
24620;BME280;12763;55.802;37.404;2023-05-21T09:02:52;100153.25;;;19.74;64.60
24620;BME280;12763;55.802;37.404;2023-05-21T09:05:22;100151.53;;;20.00;62.99
24620;BME280;12763;55.802;37.404;2023-05-21T09:08:13;100154.41;;;20.37;61.95
24620;BME280;12763;55.802;37.404;2023-05-21T09:10:54;100148.72;;;20.27;61.67
24620;BME280;12763;55.802;37.404;2023-05-21T09:13:26;100141.28;;;20.84;59.47
24620;BME280;12763;55.802;37.404;2023-05-21T09:15:53;100148.22;;;21.19;58.35
24620;BME280;12763;55.802;37.404;2023-05-21T09:18:22;100151.31;;;21.12;57.34
24620;BME280;12763;55.802;37.404;2023-05-21T09:20:55;100150.56;;;20.85;58.25
24620;BME280;12763;55.802;37.404;2023-05-21T09:23:22;100144.31;;;20.73;57.61
24620;BME280;12763;55.802;37.404;2023-05-21T09:25:49;100151.88;;;20.77;56.87
24620;BME280;12763;55.802;37.404;2023-05-21T09:28:28;100156.03;;;20.01;59.25
24620;BME280;12763;55.802;37.404;2023-05-21T09:30:54;100150.41;;;20.28;58.96
24620;BME280;12763;55.802;37.404;2023-05-21T09:33:24;100153.66;;;20.20;58.79
24620;BME280;12763;55.802;37.404;2023-05-21T09:35:50;100151.56;;;20.05;58.26
24620;BME280;12763;55.802;37.404;2023-05-21T09:38:17;100155.84;;;20.13;57.55
24620;BME280;12763;55.802;37.404;2023-05-21T09:40:44;100159.19;;;19.83;58.44
24620;BME280;12763;55.802;37.404;2023-05-21T09:43:14;100159.13;;;19.78;57.41
24620;BME280;12763;55.802;37.404;2023-05-21T09:45:59;100160.25;;;19.77;57.77
24620;BME280;12763;55.802;37.404;2023-05-21T09:48:38;100156.13;;;19.58;58.52
24620;BME280;12763;55.802;37.404;2023-05-21T09:53:33;100149.31;;;19.49;58.46
24620;BME280;12763;55.802;37.404;2023-05-21T09:55:59;100154.78;;;19.39;58.72
24620;BME280;12763;55.802;37.404;2023-05-21T09:58:25;100152.56;;;19.41;59.36
24620;BME280;12763;55.802;37.404;2023-05-21T10:00:51;100156.88;;;18.88;58.66
24620;BME280;12763;55.802;37.404;2023-05-21T10:03:19;100161.75;;;18.98;58.05
24620;BME280;12763;55.802;37.404;2023-05-21T10:05:48;100156.56;;;19.06;57.77
24620;BME280;12763;55.802;37.404;2023-05-21T10:08:17;100158.97;;;19.19;58.06
24620;BME280;12763;55.802;37.404;2023-05-21T10:10:44;100163.25;;;19.70;56.19
24620;BME280;12763;55.802;37.404;2023-05-21T10:13:13;100167.06;;;19.86;54.67
24620;BME280;12763;55.802;37.404;2023-05-21T10:15:52;100164.66;;;20.58;53.18
24620;BME280;12763;55.802;37.404;2023-05-21T10:18:21;100161.88;;;21.05;52.70
24620;BME280;12763;55.802;37.404;2023-05-21T10:20:48;100159.34;;;21.65;51.01
24620;BME280;12763;55.802;37.404;2023-05-21T10:23:14;100152.44;;;21.93;50.66
24620;BME280;12763;55.802;37.404;2023-05-21T10:25:40;100152.75;;;22.52;48.81
24620;BME280;12763;55.802;37.404;2023-05-21T10:28:06;100146.03;;;22.23;49.20
24620;BME280;12763;55.802;37.404;2023-05-21T10:30:33;100155.53;;;22.07;49.21
24620;BME280;12763;55.802;37.404;2023-05-21T10:33:00;100151.28;;;21.07;50.28
24620;BME280;12763;55.802;37.404;2023-05-21T10:35:27;100144.84;;;21.17;51.51
24620;BME280;12763;55.802;37.404;2023-05-21T10:37:56;100150.22;;;22.20;49.46
24620;BME280;12763;55.802;37.404;2023-05-21T10:40:22;100158.38;;;22.37;48.51
24620;BME280;12763;55.802;37.404;2023-05-21T10:45:52;100153.00;;;22.91;45.75
24620;BME280;12763;55.802;37.404;2023-05-21T10:48:26;100148.50;;;22.95;46.71
24620;BME280;12763;55.802;37.404;2023-05-21T10:51:26;100149.09;;;22.57;46.42
24620;BME280;12763;55.802;37.404;2023-05-21T10:57:11;100153.41;;;21.42;47.35
24620;BME280;12763;55.802;37.404;2023-05-21T10:59:47;100158.56;;;21.85;47.18
24620;BME280;12763;55.802;37.404;2023-05-21T11:02:14;100167.47;;;21.57;47.03
24620;BME280;12763;55.802;37.404;2023-05-21T11:04:46;100171.34;;;21.41;47.29
24620;BME280;12763;55.802;37.404;2023-05-21T11:07:14;100166.31;;;21.43;47.79
24620;BME280;12763;55.802;37.404;2023-05-21T11:09:49;100158.69;;;22.66;46.61
24620;BME280;12763;55.802;37.404;2023-05-21T11:12:15;100162.94;;;24.12;43.84
24620;BME280;12763;55.802;37.404;2023-05-21T11:14:55;100153.97;;;25.01;40.49
24620;BME280;12763;55.802;37.404;2023-05-21T11:17:38;100152.41;;;24.90;41.36
24620;BME280;12763;55.802;37.404;2023-05-21T11:20:11;100158.09;;;24.17;41.87
24620;BME280;12763;55.802;37.404;2023-05-21T11:22:41;100158.00;;;24.32;42.42
24620;BME280;12763;55.802;37.404;2023-05-21T11:25:06;100151.56;;;24.55;42.39
24620;BME280;12763;55.802;37.404;2023-05-21T11:27:37;100155.03;;;23.60;43.09
24620;BME280;12763;55.802;37.404;2023-05-21T11:32:30;100145.03;;;25.65;40.83
24620;BME280;12763;55.802;37.404;2023-05-21T11:34:59;100143.81;;;26.46;37.82
24620;BME280;12763;55.802;37.404;2023-05-21T11:37:30;100141.81;;;25.72;39.27
24620;BME280;12763;55.802;37.404;2023-05-21T11:40:24;100138.41;;;24.46;38.73
24620;BME280;12763;55.802;37.404;2023-05-21T11:42:52;100137.94;;;26.05;38.58
24620;BME280;12763;55.802;37.404;2023-05-21T11:45:20;100141.38;;;26.71;36.96
24620;BME280;12763;55.802;37.404;2023-05-21T11:47:48;100141.53;;;25.73;38.26
24620;BME280;12763;55.802;37.404;2023-05-21T11:50:14;100154.81;;;23.95;41.46
24620;BME280;12763;55.802;37.404;2023-05-21T11:52:41;100150.16;;;23.11;42.71
24620;BME280;12763;55.802;37.404;2023-05-21T11:55:08;100159.41;;;23.12;43.21
24620;BME280;12763;55.802;37.404;2023-05-21T11:57:36;100146.19;;;23.22;42.70
24620;BME280;12763;55.802;37.404;2023-05-21T12:00:03;100140.38;;;22.78;42.78
24620;BME280;12763;55.802;37.404;2023-05-21T12:02:50;100150.53;;;22.34;42.21
24620;BME280;12763;55.802;37.404;2023-05-21T12:05:16;100159.22;;;22.43;43.00
24620;BME280;12763;55.802;37.404;2023-05-21T12:07:45;100167.94;;;22.06;44.31
24620;BME280;12763;55.802;37.404;2023-05-21T12:10:13;100162.13;;;21.45;46.23
24620;BME280;12763;55.802;37.404;2023-05-21T12:12:39;100164.19;;;21.08;47.43
24620;BME280;12763;55.802;37.404;2023-05-21T12:15:05;100168.47;;;21.21;47.98
24620;BME280;12763;55.802;37.404;2023-05-21T12:17:31;100162.78;;;21.11;48.01
24620;BME280;12763;55.802;37.404;2023-05-21T12:19:58;100167.44;;;21.47;47.42
24620;BME280;12763;55.802;37.404;2023-05-21T12:22:26;100176.06;;;21.25;47.79
24620;BME280;12763;55.802;37.404;2023-05-21T12:24:55;100172.75;;;20.96;48.05
24620;BME280;12763;55.802;37.404;2023-05-21T12:27:23;100171.09;;;20.95;48.85
24620;BME280;12763;55.802;37.404;2023-05-21T12:29:49;100181.41;;;20.48;49.90
24620;BME280;12763;55.802;37.404;2023-05-21T12:32:19;100178.78;;;20.36;50.25
24620;BME280;12763;55.802;37.404;2023-05-21T12:34:52;100182.47;;;20.42;49.95
24620;BME280;12763;55.802;37.404;2023-05-21T12:37:21;100178.97;;;20.25;50.29
24620;BME280;12763;55.802;37.404;2023-05-21T12:39:50;100181.41;;;20.48;49.77
24620;BME280;12763;55.802;37.404;2023-05-21T12:42:24;100179.97;;;20.82;49.56
24620;BME280;12763;55.802;37.404;2023-05-21T12:44:52;100180.41;;;21.06;48.90
24620;BME280;12763;55.802;37.404;2023-05-21T12:47:18;100175.75;;;20.80;49.42
24620;BME280;12763;55.802;37.404;2023-05-21T12:49:47;100185.53;;;20.77;49.83
24620;BME280;12763;55.802;37.404;2023-05-21T12:52:16;100177.56;;;20.59;50.33